sensor_id;sensor_type;location;lat;lon;timestamp;P1;durP1;ratioP1;P2;durP2;ratioP2
31680;SDS011;18281;51.364;9.566;2022-10-31T00:01:01;8.10;;;3.40;;
31680;SDS011;18281;51.364;9.566;2022-10-31T00:03:34;10.40;;;3.65;;
31680;SDS011;18281;51.364;9.566;2022-10-31T00:05:59;12.55;;;3.95;;
31680;SDS011;18281;51.364;9.566;2022-10-31T00:08:26;13.13;;;4.40;;
31680;SDS011;18281;51.364;9.566;2022-10-31T00:10:52;8.32;;;3.55;;
31680;SDS011;18281;51.364;9.566;2022-10-31T00:13:17;8.30;;;3.80;;
31680;SDS011;18281;51.364;9.566;2022-10-31T00:15:43;7.95;;;3.75;;
31680;SDS011;18281;51.364;9.566;2022-10-31T00:18:09;5.93;;;3.15;;
31680;SDS011;18281;51.364;9.566;2022-10-31T00:20:35;9.57;;;3.60;;
31680;SDS011;18281;51.364;9.566;2022-10-31T00:23:01;7.45;;;3.63;;
31680;SDS011;18281;51.364;9.566;2022-10-31T00:25:33;6.28;;;3.63;;
31680;SDS011;18281;51.364;9.566;2022-10-31T00:28:01;10.77;;;3.60;;
31680;SDS011;18281;51.364;9.566;2022-10-31T00:30:26;9.23;;;3.50;;
31680;SDS011;18281;51.364;9.566;2022-10-31T00:32:52;8.82;;;3.80;;
31680;SDS011;18281;51.364;9.566;2022-10-31T00:35:17;9.63;;;3.70;;
31680;SDS011;18281;51.364;9.566;2022-10-31T00:37:43;7.63;;;4.30;;
31680;SDS011;18281;51.364;9.566;2022-10-31T00:40:08;10.95;;;3.38;;
31680;SDS011;18281;51.364;9.566;2022-10-31T00:42:34;9.25;;;4.05;;
31680;SDS011;18281;51.364;9.566;2022-10-31T00:45:00;10.13;;;4.22;;
31680;SDS011;18281;51.364;9.566;2022-10-31T00:47:28;9.43;;;3.17;;
31680;SDS011;18281;51.364;9.566;2022-10-31T00:49:56;10.90;;;3.40;;
31680;SDS011;18281;51.364;9.566;2022-10-31T00:52:21;9.93;;;3.78;;
31680;SDS011;18281;51.364;9.566;2022-10-31T00:54:46;8.00;;;3.42;;
31680;SDS011;18281;51.364;9.566;2022-10-31T00:57:12;11.30;;;3.70;;
31680;SDS011;18281;51.364;9.566;2022-10-31T00:59:37;11.45;;;3.92;;
31680;SDS011;18281;51.364;9.566;2022-10-31T01:02:03;13.70;;;3.92;;
31680;SDS011;18281;51.364;9.566;2022-10-31T01:04:28;7.82;;;3.90;;
31680;SDS011;18281;51.364;9.566;2022-10-31T01:06:54;7.10;;;3.08;;
31680;SDS011;18281;51.364;9.566;2022-10-31T01:09:22;12.20;;;4.10;;
31680;SDS011;18281;51.364;9.566;2022-10-31T01:11:47;10.60;;;3.38;;
31680;SDS011;18281;51.364;9.566;2022-10-31T01:14:13;9.40;;;3.83;;
31680;SDS011;18281;51.364;9.566;2022-10-31T01:16:41;7.75;;;3.75;;
31680;SDS011;18281;51.364;9.566;2022-10-31T01:19:07;10.48;;;3.70;;
31680;SDS011;18281;51.364;9.566;2022-10-31T01:21:32;6.65;;;3.38;;
31680;SDS011;18281;51.364;9.566;2022-10-31T01:23:58;11.73;;;4.10;;
31680;SDS011;18281;51.364;9.566;2022-10-31T01:26:25;11.63;;;3.38;;
31680;SDS011;18281;51.364;9.566;2022-10-31T01:28:57;8.35;;;4.13;;
31680;SDS011;18281;51.364;9.566;2022-10-31T01:31:34;10.27;;;3.63;;
31680;SDS011;18281;51.364;9.566;2022-10-31T01:34:01;6.13;;;3.63;;
31680;SDS011;18281;51.364;9.566;2022-10-31T01:36:29;6.15;;;3.53;;
31680;SDS011;18281;51.364;9.566;2022-10-31T01:39:05;9.55;;;4.25;;
31680;SDS011;18281;51.364;9.566;2022-10-31T01:41:36;8.63;;;4.38;;
31680;SDS011;18281;51.364;9.566;2022-10-31T01:46:48;11.57;;;3.75;;
31680;SDS011;18281;51.364;9.566;2022-10-31T01:54:46;8.65;;;3.75;;
31680;SDS011;18281;51.364;9.566;2022-10-31T01:57:16;8.43;;;3.78;;
31680;SDS011;18281;51.364;9.566;2022-10-31T01:59:47;8.85;;;3.95;;
31680;SDS011;18281;51.364;9.566;2022-10-31T02:02:18;7.38;;;4.22;;
31680;SDS011;18281;51.364;9.566;2022-10-31T02:04:44;14.18;;;4.47;;
31680;SDS011;18281;51.364;9.566;2022-10-31T02:07:13;4.78;;;3.88;;
31680;SDS011;18281;51.364;9.566;2022-10-31T02:09:43;9.05;;;3.55;;
31680;SDS011;18281;51.364;9.566;2022-10-31T02:12:16;9.73;;;4.20;;
31680;SDS011;18281;51.364;9.566;2022-10-31T02:14:42;8.80;;;4.05;;
31680;SDS011;18281;51.364;9.566;2022-10-31T02:17:08;10.18;;;4.18;;
31680;SDS011;18281;51.364;9.566;2022-10-31T02:19:51;8.50;;;3.90;;
31680;SDS011;18281;51.364;9.566;2022-10-31T02:25:25;6.82;;;3.50;;
31680;SDS011;18281;51.364;9.566;2022-10-31T02:28:30;9.95;;;3.95;;
31680;SDS011;18281;51.364;9.566;2022-10-31T02:34:02;6.28;;;3.42;;
31680;SDS011;18281;51.364;9.566;2022-10-31T02:42:09;6.38;;;3.40;;
31680;SDS011;18281;51.364;9.566;2022-10-31T02:47:14;10.60;;;4.22;;
31680;SDS011;18281;51.364;9.566;2022-10-31T02:49:53;7.72;;;4.15;;
31680;SDS011;18281;51.364;9.566;2022-10-31T02:52:26;8.70;;;3.60;;
31680;SDS011;18281;51.364;9.566;2022-10-31T02:54:54;8.25;;;4.32;;
31680;SDS011;18281;51.364;9.566;2022-10-31T02:57:38;7.75;;;3.80;;
31680;SDS011;18281;51.364;9.566;2022-10-31T03:00:07;4.15;;;3.05;;
31680;SDS011;18281;51.364;9.566;2022-10-31T03:05:12;7.85;;;3.28;;
31680;SDS011;18281;51.364;9.566;2022-10-31T03:10:46;9.23;;;3.90;;
31680;SDS011;18281;51.364;9.566;2022-10-31T03:13:34;7.20;;;3.70;;
31680;SDS011;18281;51.364;9.566;2022-10-31T03:18:40;8.32;;;3.50;;
31680;SDS011;18281;51.364;9.566;2022-10-31T03:21:17;7.55;;;3.63;;
31680;SDS011;18281;51.364;9.566;2022-10-31T03:23:48;9.68;;;3.70;;
31680;SDS011;18281;51.364;9.566;2022-10-31T03:26:16;21.38;;;4.22;;
31680;SDS011;18281;51.364;9.566;2022-10-31T03:29:03;9.20;;;3.90;;
31680;SDS011;18281;51.364;9.566;2022-10-31T03:31:35;9.80;;;3.53;;
31680;SDS011;18281;51.364;9.566;2022-10-31T03:34:13;9.47;;;3.63;;
31680;SDS011;18281;51.364;9.566;2022-10-31T03:36:41;9.48;;;3.83;;
31680;SDS011;18281;51.364;9.566;2022-10-31T03:39:10;9.05;;;3.85;;
31680;SDS011;18281;51.364;9.566;2022-10-31T03:44:27;8.88;;;3.20;;
31680;SDS011;18281;51.364;9.566;2022-10-31T03:46:54;9.80;;;3.70;;
31680;SDS011;18281;51.364;9.566;2022-10-31T03:49:20;6.13;;;3.60;;
31680;SDS011;18281;51.364;9.566;2022-10-31T03:51:57;7.22;;;3.90;;
31680;SDS011;18281;51.364;9.566;2022-10-31T03:54:41;11.68;;;3.38;;
31680;SDS011;18281;51.364;9.566;2022-10-31T03:57:21;8.82;;;4.22;;
31680;SDS011;18281;51.364;9.566;2022-10-31T04:00:00;5.32;;;3.65;;
31680;SDS011;18281;51.364;9.566;2022-10-31T04:02:32;7.40;;;3.57;;
31680;SDS011;18281;51.364;9.566;2022-10-31T04:04:59;8.95;;;3.65;;
31680;SDS011;18281;51.364;9.566;2022-10-31T04:07:27;8.13;;;3.97;;
31680;SDS011;18281;51.364;9.566;2022-10-31T04:09:55;9.50;;;3.50;;
31680;SDS011;18281;51.364;9.566;2022-10-31T04:12:23;5.32;;;3.35;;
31680;SDS011;18281;51.364;9.566;2022-10-31T04:14:52;7.43;;;3.47;;
31680;SDS011;18281;51.364;9.566;2022-10-31T04:17:19;9.27;;;3.75;;
31680;SDS011;18281;51.364;9.566;2022-10-31T04:19:52;10.25;;;4.45;;
31680;SDS011;18281;51.364;9.566;2022-10-31T04:22:17;8.93;;;3.45;;
31680;SDS011;18281;51.364;9.566;2022-10-31T04:24:43;7.00;;;3.55;;
31680;SDS011;18281;51.364;9.566;2022-10-31T04:27:08;5.97;;;2.83;;
31680;SDS011;18281;51.364;9.566;2022-10-31T04:29:34;12.65;;;4.55;;
31680;SDS011;18281;51.364;9.566;2022-10-31T04:31:59;9.27;;;3.50;;
31680;SDS011;18281;51.364;9.566;2022-10-31T04:34:25;6.65;;;3.47;;
31680;SDS011;18281;51.364;9.566;2022-10-31T04:36:53;9.85;;;4.10;;
31680;SDS011;18281;51.364;9.566;2022-10-31T04:39:18;10.55;;;3.67;;
31680;SDS011;18281;51.364;9.566;2022-10-31T04:41:44;4.55;;;3.40;;
31680;SDS011;18281;51.364;9.566;2022-10-31T04:44:09;17.58;;;5.00;;
31680;SDS011;18281;51.364;9.566;2022-10-31T04:46:35;8.82;;;4.72;;
31680;SDS011;18281;51.364;9.566;2022-10-31T04:49:03;17.33;;;8.63;;
31680;SDS011;18281;51.364;9.566;2022-10-31T04:51:31;15.05;;;7.65;;
31680;SDS011;18281;51.364;9.566;2022-10-31T04:53:57;26.20;;;8.20;;
31680;SDS011;18281;51.364;9.566;2022-10-31T04:56:22;11.27;;;5.82;;
31680;SDS011;18281;51.364;9.566;2022-10-31T04:58:53;7.90;;;4.53;;
31680;SDS011;18281;51.364;9.566;2022-10-31T05:01:18;11.63;;;4.38;;
31680;SDS011;18281;51.364;9.566;2022-10-31T05:03:44;9.73;;;4.13;;
31680;SDS011;18281;51.364;9.566;2022-10-31T05:06:09;8.18;;;4.28;;
31680;SDS011;18281;51.364;9.566;2022-10-31T05:08:35;7.15;;;3.45;;
31680;SDS011;18281;51.364;9.566;2022-10-31T05:11:00;9.82;;;3.78;;
31680;SDS011;18281;51.364;9.566;2022-10-31T05:13:29;11.33;;;4.40;;
31680;SDS011;18281;51.364;9.566;2022-10-31T05:15:57;9.20;;;3.55;;
31680;SDS011;18281;51.364;9.566;2022-10-31T05:18:22;5.88;;;3.65;;
31680;SDS011;18281;51.364;9.566;2022-10-31T05:20:48;9.40;;;4.15;;
31680;SDS011;18281;51.364;9.566;2022-10-31T05:23:16;5.53;;;4.35;;
31680;SDS011;18281;51.364;9.566;2022-10-31T05:25:45;7.32;;;3.42;;
31680;SDS011;18281;51.364;9.566;2022-10-31T05:28:13;6.88;;;4.18;;
31680;SDS011;18281;51.364;9.566;2022-10-31T05:30:38;12.50;;;4.97;;
31680;SDS011;18281;51.364;9.566;2022-10-31T05:33:04;11.85;;;4.05;;
31680;SDS011;18281;51.364;9.566;2022-10-31T05:35:32;13.93;;;4.70;;
31680;SDS011;18281;51.364;9.566;2022-10-31T05:37:58;6.88;;;3.50;;
31680;SDS011;18281;51.364;9.566;2022-10-31T05:40:24;6.20;;;4.00;;
31680;SDS011;18281;51.364;9.566;2022-10-31T05:42:51;9.02;;;4.15;;
31680;SDS011;18281;51.364;9.566;2022-10-31T05:45:18;8.98;;;4.40;;
31680;SDS011;18281;51.364;9.566;2022-10-31T05:47:51;7.03;;;4.57;;
31680;SDS011;18281;51.364;9.566;2022-10-31T05:50:29;7.93;;;4.03;;
31680;SDS011;18281;51.364;9.566;2022-10-31T05:52:57;5.97;;;3.10;;
31680;SDS011;18281;51.364;9.566;2022-10-31T05:55:28;10.10;;;4.95;;
31680;SDS011;18281;51.364;9.566;2022-10-31T05:57:54;10.30;;;4.65;;
31680;SDS011;18281;51.364;9.566;2022-10-31T06:00:19;11.73;;;4.60;;
31680;SDS011;18281;51.364;9.566;2022-10-31T06:02:45;7.82;;;4.00;;
31680;SDS011;18281;51.364;9.566;2022-10-31T06:05:11;7.95;;;3.50;;
31680;SDS011;18281;51.364;9.566;2022-10-31T06:07:38;7.63;;;3.40;;
31680;SDS011;18281;51.364;9.566;2022-10-31T06:10:04;4.78;;;2.90;;
31680;SDS011;18281;51.364;9.566;2022-10-31T06:12:31;8.93;;;3.67;;
31680;SDS011;18281;51.364;9.566;2022-10-31T06:15:02;6.38;;;3.72;;
31680;SDS011;18281;51.364;9.566;2022-10-31T06:17:31;9.77;;;3.67;;
31680;SDS011;18281;51.364;9.566;2022-10-31T06:19:56;9.82;;;3.53;;
31680;SDS011;18281;51.364;9.566;2022-10-31T06:22:21;7.45;;;3.15;;
31680;SDS011;18281;51.364;9.566;2022-10-31T06:24:47;5.15;;;2.85;;
31680;SDS011;18281;51.364;9.566;2022-10-31T06:27:12;5.35;;;3.03;;
31680;SDS011;18281;51.364;9.566;2022-10-31T06:29:38;5.95;;;3.05;;
31680;SDS011;18281;51.364;9.566;2022-10-31T06:32:03;7.03;;;2.83;;
31680;SDS011;18281;51.364;9.566;2022-10-31T06:34:28;10.40;;;4.40;;
31680;SDS011;18281;51.364;9.566;2022-10-31T06:36:54;8.82;;;3.80;;
31680;SDS011;18281;51.364;9.566;2022-10-31T06:39:19;9.90;;;3.92;;
31680;SDS011;18281;51.364;9.566;2022-10-31T06:41:46;7.05;;;3.72;;
31680;SDS011;18281;51.364;9.566;2022-10-31T06:44:12;7.55;;;3.72;;
31680;SDS011;18281;51.364;9.566;2022-10-31T06:46:37;5.45;;;3.75;;
31680;SDS011;18281;51.364;9.566;2022-10-31T06:49:03;8.85;;;3.60;;
31680;SDS011;18281;51.364;9.566;2022-10-31T06:51:28;6.35;;;3.63;;
31680;SDS011;18281;51.364;9.566;2022-10-31T06:53:53;7.63;;;3.88;;
31680;SDS011;18281;51.364;9.566;2022-10-31T06:56:19;9.75;;;3.90;;
31680;SDS011;18281;51.364;9.566;2022-10-31T06:58:44;11.20;;;3.47;;
31680;SDS011;18281;51.364;9.566;2022-10-31T07:01:10;7.00;;;3.58;;
31680;SDS011;18281;51.364;9.566;2022-10-31T07:03:35;10.50;;;3.38;;
31680;SDS011;18281;51.364;9.566;2022-10-31T07:06:00;6.15;;;3.55;;
31680;SDS011;18281;51.364;9.566;2022-10-31T07:08:25;5.22;;;3.80;;
31680;SDS011;18281;51.364;9.566;2022-10-31T07:10:52;6.30;;;4.05;;
31680;SDS011;18281;51.364;9.566;2022-10-31T07:13:19;8.65;;;4.30;;
31680;SDS011;18281;51.364;9.566;2022-10-31T07:15:51;6.63;;;4.55;;
31680;SDS011;18281;51.364;9.566;2022-10-31T07:18:23;8.00;;;5.15;;
31680;SDS011;18281;51.364;9.566;2022-10-31T07:20:49;6.65;;;4.38;;
31680;SDS011;18281;51.364;9.566;2022-10-31T07:23:14;8.90;;;4.18;;
31680;SDS011;18281;51.364;9.566;2022-10-31T07:25:40;6.93;;;4.35;;
31680;SDS011;18281;51.364;9.566;2022-10-31T07:28:06;6.05;;;4.40;;
31680;SDS011;18281;51.364;9.566;2022-10-31T07:30:32;8.57;;;5.53;;
31680;SDS011;18281;51.364;9.566;2022-10-31T07:32:57;7.93;;;6.18;;
31680;SDS011;18281;51.364;9.566;2022-10-31T07:35:24;12.60;;;7.55;;
31680;SDS011;18281;51.364;9.566;2022-10-31T07:37:50;9.98;;;6.10;;
31680;SDS011;18281;51.364;9.566;2022-10-31T07:40:16;10.95;;;5.72;;
31680;SDS011;18281;51.364;9.566;2022-10-31T07:42:43;10.10;;;5.30;;
31680;SDS011;18281;51.364;9.566;2022-10-31T07:45:11;7.13;;;4.30;;
31680;SDS011;18281;51.364;9.566;2022-10-31T07:47:42;11.50;;;5.32;;
31680;SDS011;18281;51.364;9.566;2022-10-31T07:50:09;6.78;;;5.03;;
31680;SDS011;18281;51.364;9.566;2022-10-31T07:52:36;8.23;;;5.43;;
31680;SDS011;18281;51.364;9.566;2022-10-31T07:55:02;14.40;;;5.32;;
31680;SDS011;18281;51.364;9.566;2022-10-31T07:57:28;15.05;;;5.22;;
31680;SDS011;18281;51.364;9.566;2022-10-31T07:59:54;8.18;;;5.43;;
31680;SDS011;18281;51.364;9.566;2022-10-31T08:02:19;14.07;;;5.80;;
31680;SDS011;18281;51.364;9.566;2022-10-31T08:04:45;11.68;;;5.95;;
31680;SDS011;18281;51.364;9.566;2022-10-31T08:07:10;16.38;;;6.43;;
31680;SDS011;18281;51.364;9.566;2022-10-31T08:09:35;10.65;;;5.63;;
31680;SDS011;18281;51.364;9.566;2022-10-31T08:12:01;8.65;;;5.28;;
31680;SDS011;18281;51.364;9.566;2022-10-31T08:14:26;8.88;;;5.38;;
31680;SDS011;18281;51.364;9.566;2022-10-31T08:16:52;9.40;;;5.68;;
31680;SDS011;18281;51.364;9.566;2022-10-31T08:19:18;9.07;;;5.47;;
31680;SDS011;18281;51.364;9.566;2022-10-31T08:21:43;10.10;;;6.22;;
31680;SDS011;18281;51.364;9.566;2022-10-31T08:24:09;13.75;;;6.07;;
31680;SDS011;18281;51.364;9.566;2022-10-31T08:26:34;10.05;;;6.25;;
31680;SDS011;18281;51.364;9.566;2022-10-31T08:28:59;20.33;;;10.38;;
31680;SDS011;18281;51.364;9.566;2022-10-31T08:31:25;18.35;;;9.77;;
31680;SDS011;18281;51.364;9.566;2022-10-31T08:33:52;12.23;;;6.93;;
31680;SDS011;18281;51.364;9.566;2022-10-31T08:36:18;10.77;;;6.45;;
31680;SDS011;18281;51.364;9.566;2022-10-31T08:38:44;9.98;;;6.20;;
31680;SDS011;18281;51.364;9.566;2022-10-31T08:41:11;10.88;;;6.05;;
31680;SDS011;18281;51.364;9.566;2022-10-31T08:43:36;9.13;;;6.45;;
31680;SDS011;18281;51.364;9.566;2022-10-31T08:46:01;6.13;;;4.55;;
31680;SDS011;18281;51.364;9.566;2022-10-31T08:48:27;10.90;;;4.70;;
31680;SDS011;18281;51.364;9.566;2022-10-31T08:50:55;6.78;;;4.28;;
31680;SDS011;18281;51.364;9.566;2022-10-31T08:53:23;12.10;;;4.70;;
31680;SDS011;18281;51.364;9.566;2022-10-31T08:55:48;8.85;;;4.13;;
31680;SDS011;18281;51.364;9.566;2022-10-31T08:58:18;9.38;;;4.38;;
31680;SDS011;18281;51.364;9.566;2022-10-31T09:00:44;6.10;;;4.40;;
31680;SDS011;18281;51.364;9.566;2022-10-31T09:03:12;7.93;;;4.20;;
31680;SDS011;18281;51.364;9.566;2022-10-31T09:05:39;7.53;;;5.10;;
31680;SDS011;18281;51.364;9.566;2022-10-31T09:08:05;8.05;;;5.03;;
31680;SDS011;18281;51.364;9.566;2022-10-31T09:10:32;6.78;;;4.50;;
31680;SDS011;18281;51.364;9.566;2022-10-31T09:12:59;7.57;;;4.50;;
31680;SDS011;18281;51.364;9.566;2022-10-31T09:15:26;10.43;;;4.63;;
31680;SDS011;18281;51.364;9.566;2022-10-31T09:17:53;7.68;;;4.97;;
31680;SDS011;18281;51.364;9.566;2022-10-31T09:20:19;8.77;;;5.03;;
31680;SDS011;18281;51.364;9.566;2022-10-31T09:22:45;9.00;;;4.90;;
31680;SDS011;18281;51.364;9.566;2022-10-31T09:25:10;8.93;;;4.00;;
31680;SDS011;18281;51.364;9.566;2022-10-31T09:27:36;5.43;;;3.72;;
31680;SDS011;18281;51.364;9.566;2022-10-31T09:30:02;15.60;;;5.22;;
31680;SDS011;18281;51.364;9.566;2022-10-31T09:32:28;8.77;;;4.05;;
31680;SDS011;18281;51.364;9.566;2022-10-31T09:34:53;5.53;;;4.07;;
31680;SDS011;18281;51.364;9.566;2022-10-31T09:37:19;6.10;;;4.57;;
31680;SDS011;18281;51.364;9.566;2022-10-31T09:39:44;7.38;;;4.10;;
31680;SDS011;18281;51.364;9.566;2022-10-31T09:47:49;8.93;;;4.57;;
31680;SDS011;18281;51.364;9.566;2022-10-31T09:52:57;8.73;;;4.80;;
31680;SDS011;18281;51.364;9.566;2022-10-31T09:55:45;8.75;;;4.65;;
31680;SDS011;18281;51.364;9.566;2022-10-31T09:58:18;7.72;;;5.05;;
31680;SDS011;18281;51.364;9.566;2022-10-31T10:00:47;7.97;;;4.90;;
31680;SDS011;18281;51.364;9.566;2022-10-31T10:08:21;10.48;;;5.07;;
31680;SDS011;18281;51.364;9.566;2022-10-31T10:32:52;12.45;;;5.97;;
31680;SDS011;18281;51.364;9.566;2022-10-31T10:38:12;11.85;;;5.65;;
31680;SDS011;18281;51.364;9.566;2022-10-31T10:40:43;10.95;;;6.40;;
31680;SDS011;18281;51.364;9.566;2022-10-31T10:46:05;9.80;;;6.00;;
31680;SDS011;18281;51.364;9.566;2022-10-31T10:51:43;17.35;;;6.43;;
31680;SDS011;18281;51.364;9.566;2022-10-31T10:54:38;12.13;;;6.90;;
31680;SDS011;18281;51.364;9.566;2022-10-31T10:59:54;13.10;;;6.43;;
31680;SDS011;18281;51.364;9.566;2022-10-31T11:02:24;9.75;;;6.38;;
31680;SDS011;18281;51.364;9.566;2022-10-31T11:04:52;12.10;;;5.63;;
31680;SDS011;18281;51.364;9.566;2022-10-31T11:07:20;13.82;;;6.80;;
31680;SDS011;18281;51.364;9.566;2022-10-31T11:09:45;17.80;;;6.95;;
31680;SDS011;18281;51.364;9.566;2022-10-31T11:12:31;14.50;;;6.57;;
31680;SDS011;18281;51.364;9.566;2022-10-31T11:14:59;13.32;;;6.20;;
31680;SDS011;18281;51.364;9.566;2022-10-31T11:17:33;27.77;;;20.92;;
31680;SDS011;18281;51.364;9.566;2022-10-31T11:22:41;14.88;;;10.43;;
31680;SDS011;18281;51.364;9.566;2022-10-31T11:27:44;17.20;;;7.45;;
31680;SDS011;18281;51.364;9.566;2022-10-31T11:30:11;14.18;;;8.90;;
31680;SDS011;18281;51.364;9.566;2022-10-31T11:32:40;15.63;;;8.77;;
31680;SDS011;18281;51.364;9.566;2022-10-31T11:35:13;15.27;;;7.43;;
31680;SDS011;18281;51.364;9.566;2022-10-31T11:37:43;14.18;;;6.93;;
31680;SDS011;18281;51.364;9.566;2022-10-31T11:40:15;9.95;;;5.93;;
31680;SDS011;18281;51.364;9.566;2022-10-31T11:42:44;13.52;;;5.88;;
31680;SDS011;18281;51.364;9.566;2022-10-31T11:45:14;20.05;;;10.70;;
31680;SDS011;18281;51.364;9.566;2022-10-31T11:48:02;29.73;;;12.48;;
31680;SDS011;18281;51.364;9.566;2022-10-31T11:50:40;17.23;;;9.75;;
31680;SDS011;18281;51.364;9.566;2022-10-31T11:53:13;12.40;;;5.95;;
31680;SDS011;18281;51.364;9.566;2022-10-31T11:56:13;13.50;;;5.32;;
31680;SDS011;18281;51.364;9.566;2022-10-31T11:58:39;12.70;;;5.22;;
31680;SDS011;18281;51.364;9.566;2022-10-31T12:01:05;11.40;;;5.38;;
31680;SDS011;18281;51.364;9.566;2022-10-31T12:03:40;9.65;;;5.05;;
31680;SDS011;18281;51.364;9.566;2022-10-31T12:06:16;10.43;;;5.35;;
31680;SDS011;18281;51.364;9.566;2022-10-31T12:08:47;13.05;;;6.22;;
31680;SDS011;18281;51.364;9.566;2022-10-31T12:11:34;12.68;;;6.32;;
31680;SDS011;18281;51.364;9.566;2022-10-31T12:16:52;28.38;;;12.45;;
31680;SDS011;18281;51.364;9.566;2022-10-31T12:27:28;16.15;;;8.35;;
31680;SDS011;18281;51.364;9.566;2022-10-31T12:35:57;12.32;;;4.80;;
31680;SDS011;18281;51.364;9.566;2022-10-31T12:41:24;9.95;;;5.00;;
31680;SDS011;18281;51.364;9.566;2022-10-31T12:49:27;12.68;;;6.15;;
31680;SDS011;18281;51.364;9.566;2022-10-31T12:52:10;13.35;;;5.75;;
31680;SDS011;18281;51.364;9.566;2022-10-31T12:54:58;10.57;;;5.32;;
31680;SDS011;18281;51.364;9.566;2022-10-31T13:00:02;6.32;;;4.63;;
31680;SDS011;18281;51.364;9.566;2022-10-31T13:02:38;10.77;;;4.75;;
31680;SDS011;18281;51.364;9.566;2022-10-31T13:07:53;10.15;;;4.50;;
31680;SDS011;18281;51.364;9.566;2022-10-31T13:10:44;9.68;;;5.10;;
31680;SDS011;18281;51.364;9.566;2022-10-31T13:15:50;9.45;;;4.60;;
31680;SDS011;18281;51.364;9.566;2022-10-31T13:21:24;7.65;;;4.72;;
31680;SDS011;18281;51.364;9.566;2022-10-31T13:23:53;8.95;;;5.80;;
31680;SDS011;18281;51.364;9.566;2022-10-31T13:31:50;9.63;;;5.72;;
31680;SDS011;18281;51.364;9.566;2022-10-31T13:34:21;12.93;;;5.30;;
31680;SDS011;18281;51.364;9.566;2022-10-31T13:37:04;10.52;;;5.45;;
31680;SDS011;18281;51.364;9.566;2022-10-31T13:39:49;11.98;;;5.50;;
31680;SDS011;18281;51.364;9.566;2022-10-31T13:42:29;13.20;;;5.63;;
31680;SDS011;18281;51.364;9.566;2022-10-31T13:45:17;11.30;;;5.32;;
31680;SDS011;18281;51.364;9.566;2022-10-31T13:47:54;10.45;;;6.45;;
31680;SDS011;18281;51.364;9.566;2022-10-31T13:50:43;11.88;;;6.18;;
31680;SDS011;18281;51.364;9.566;2022-10-31T13:53:35;14.00;;;6.22;;
31680;SDS011;18281;51.364;9.566;2022-10-31T13:58:34;8.68;;;5.00;;
31680;SDS011;18281;51.364;9.566;2022-10-31T14:01:10;10.07;;;5.53;;
31680;SDS011;18281;51.364;9.566;2022-10-31T14:03:41;10.48;;;5.32;;
31680;SDS011;18281;51.364;9.566;2022-10-31T14:06:09;12.27;;;5.43;;
31680;SDS011;18281;51.364;9.566;2022-10-31T14:08:37;13.35;;;5.70;;
31680;SDS011;18281;51.364;9.566;2022-10-31T14:11:06;6.93;;;4.85;;
31680;SDS011;18281;51.364;9.566;2022-10-31T14:13:51;9.77;;;5.20;;
31680;SDS011;18281;51.364;9.566;2022-10-31T14:16:18;9.90;;;4.65;;
31680;SDS011;18281;51.364;9.566;2022-10-31T14:18:50;12.43;;;5.55;;
31680;SDS011;18281;51.364;9.566;2022-10-31T14:23:47;16.92;;;5.75;;
31680;SDS011;18281;51.364;9.566;2022-10-31T14:28:51;10.30;;;5.00;;
31680;SDS011;18281;51.364;9.566;2022-10-31T14:34:17;12.55;;;5.10;;
31680;SDS011;18281;51.364;9.566;2022-10-31T14:37:08;12.90;;;5.43;;
31680;SDS011;18281;51.364;9.566;2022-10-31T14:40:00;9.65;;;5.03;;
31680;SDS011;18281;51.364;9.566;2022-10-31T14:42:41;14.70;;;5.60;;
31680;SDS011;18281;51.364;9.566;2022-10-31T14:50:53;11.07;;;5.43;;
31680;SDS011;18281;51.364;9.566;2022-10-31T14:53:33;12.35;;;6.15;;
31680;SDS011;18281;51.364;9.566;2022-10-31T14:56:01;13.23;;;6.20;;
31680;SDS011;18281;51.364;9.566;2022-10-31T14:58:46;13.77;;;6.43;;
31680;SDS011;18281;51.364;9.566;2022-10-31T15:01:18;13.77;;;6.18;;
31680;SDS011;18281;51.364;9.566;2022-10-31T15:03:51;8.43;;;5.35;;
31680;SDS011;18281;51.364;9.566;2022-10-31T15:06:19;8.68;;;5.38;;
31680;SDS011;18281;51.364;9.566;2022-10-31T15:08:52;8.98;;;5.05;;
31680;SDS011;18281;51.364;9.566;2022-10-31T15:11:28;13.05;;;6.05;;
31680;SDS011;18281;51.364;9.566;2022-10-31T15:14:05;13.85;;;5.88;;
31680;SDS011;18281;51.364;9.566;2022-10-31T15:16:47;12.10;;;6.55;;
31680;SDS011;18281;51.364;9.566;2022-10-31T15:19:14;11.45;;;6.30;;
31680;SDS011;18281;51.364;9.566;2022-10-31T15:21:49;10.95;;;6.50;;
31680;SDS011;18281;51.364;9.566;2022-10-31T15:24:16;13.27;;;6.25;;
31680;SDS011;18281;51.364;9.566;2022-10-31T15:26:44;11.02;;;5.82;;
31680;SDS011;18281;51.364;9.566;2022-10-31T15:29:13;10.32;;;5.93;;
31680;SDS011;18281;51.364;9.566;2022-10-31T15:31:50;15.60;;;6.70;;
31680;SDS011;18281;51.364;9.566;2022-10-31T15:34:28;9.80;;;6.82;;
31680;SDS011;18281;51.364;9.566;2022-10-31T15:36:55;11.85;;;6.53;;
31680;SDS011;18281;51.364;9.566;2022-10-31T15:39:20;8.52;;;5.93;;
31680;SDS011;18281;51.364;9.566;2022-10-31T15:41:50;19.55;;;7.97;;
31680;SDS011;18281;51.364;9.566;2022-10-31T15:46:52;11.88;;;6.65;;
31680;SDS011;18281;51.364;9.566;2022-10-31T15:52:06;12.75;;;6.60;;
31680;SDS011;18281;51.364;9.566;2022-10-31T15:54:41;14.05;;;6.28;;
31680;SDS011;18281;51.364;9.566;2022-10-31T15:57:11;13.90;;;6.57;;
31680;SDS011;18281;51.364;9.566;2022-10-31T15:59:37;16.05;;;6.28;;
31680;SDS011;18281;51.364;9.566;2022-10-31T16:02:10;14.65;;;6.45;;
31680;SDS011;18281;51.364;9.566;2022-10-31T16:04:37;11.48;;;6.15;;
31680;SDS011;18281;51.364;9.566;2022-10-31T16:07:13;12.63;;;5.78;;
31680;SDS011;18281;51.364;9.566;2022-10-31T16:10:00;15.15;;;5.47;;
31680;SDS011;18281;51.364;9.566;2022-10-31T16:12:32;14.07;;;5.47;;
31680;SDS011;18281;51.364;9.566;2022-10-31T16:15:01;14.90;;;5.40;;
31680;SDS011;18281;51.364;9.566;2022-10-31T16:17:27;10.02;;;5.63;;
31680;SDS011;18281;51.364;9.566;2022-10-31T16:20:35;14.60;;;5.35;;
31680;SDS011;18281;51.364;9.566;2022-10-31T16:22:52;13.15;;;5.05;;
31680;SDS011;18281;51.364;9.566;2022-10-31T16:27:53;10.57;;;5.22;;
31680;SDS011;18281;51.364;9.566;2022-10-31T16:33:04;13.85;;;7.45;;
31680;SDS011;18281;51.364;9.566;2022-10-31T16:35:44;13.20;;;7.90;;
31680;SDS011;18281;51.364;9.566;2022-10-31T16:38:10;13.75;;;5.75;;
31680;SDS011;18281;51.364;9.566;2022-10-31T16:40:37;18.08;;;6.57;;
31680;SDS011;18281;51.364;9.566;2022-10-31T16:43:03;11.40;;;6.57;;
31680;SDS011;18281;51.364;9.566;2022-10-31T16:45:29;12.40;;;6.93;;
31680;SDS011;18281;51.364;9.566;2022-10-31T16:48:04;12.45;;;5.95;;
31680;SDS011;18281;51.364;9.566;2022-10-31T16:50:31;13.35;;;5.63;;
31680;SDS011;18281;51.364;9.566;2022-10-31T16:52:57;12.77;;;6.40;;
31680;SDS011;18281;51.364;9.566;2022-10-31T16:55:22;8.15;;;5.60;;
31680;SDS011;18281;51.364;9.566;2022-10-31T16:57:57;11.45;;;5.72;;
31680;SDS011;18281;51.364;9.566;2022-10-31T17:00:24;10.05;;;5.80;;
31680;SDS011;18281;51.364;9.566;2022-10-31T17:02:51;10.98;;;6.95;;
31680;SDS011;18281;51.364;9.566;2022-10-31T17:05:18;11.25;;;4.93;;
31680;SDS011;18281;51.364;9.566;2022-10-31T17:07:46;10.07;;;6.07;;
31680;SDS011;18281;51.364;9.566;2022-10-31T17:10:12;8.80;;;5.63;;
31680;SDS011;18281;51.364;9.566;2022-10-31T17:12:39;14.27;;;6.15;;
31680;SDS011;18281;51.364;9.566;2022-10-31T17:15:13;10.60;;;5.35;;
31680;SDS011;18281;51.364;9.566;2022-10-31T17:17:44;10.70;;;5.57;;
31680;SDS011;18281;51.364;9.566;2022-10-31T17:20:20;7.07;;;4.82;;
31680;SDS011;18281;51.364;9.566;2022-10-31T17:22:50;9.82;;;5.80;;
31680;SDS011;18281;51.364;9.566;2022-10-31T17:25:17;7.75;;;5.20;;
31680;SDS011;18281;51.364;9.566;2022-10-31T17:27:44;11.32;;;5.55;;
31680;SDS011;18281;51.364;9.566;2022-10-31T17:30:10;13.63;;;5.55;;